This is the latest recevied weather packets stored in our database for station/object SQ7KHZ-10. If no packets are shown the sender has not sent any weather packets the latest 1 day(s).
| Time | Temp. | Humidity | Pressure | Rain* | Wind** | Luminosity | Snow |
|---|---|---|---|---|---|---|---|
| 1778023906 | 11.67° C | 65% | 1005.8 hPa | 0 mm | 0 m/s | - | - |
| 1778022706 | 12.22° C | 60% | 1005.8 hPa | 0 mm | 0 m/s | - | - |
| 1778021494 | 12.22° C | 59% | 1005.8 hPa | 0 mm | 0 m/s | - | - |
| 1778020282 | 12.22° C | 60% | 1005.9 hPa | 0 mm | 0 m/s | - | - |
| 1778019080 | 12.78° C | 55% | 1005.8 hPa | 0 mm | 0 m/s | - | - |
| 1778017869 | 13.33° C | 57% | 1005.9 hPa | 0 mm | 0 m/s | - | - |
| 1778016657 | 15° C | 50% | 1005.9 hPa | 0 mm | 0 m/s | - | - |
| 1778015454 | 15° C | 50% | 1005.8 hPa | 0 mm | 0 m/s | - | - |
| 1778014249 | 14.44° C | 50% | 1005.9 hPa | 0 mm | 0 m/s | - | - |
| 1778013047 | 13.89° C | 56% | 1006 hPa | 0 mm | 0 m/s | - | - |
| 1778011847 | 15° C | 52% | 1005.8 hPa | 0 mm | 0 m/s | - | - |
| 1778010635 | 15° C | 50% | 1005.8 hPa | 0 mm | 0 m/s | - | - |
| 1778009434 | 15.56° C | 50% | 1005.7 hPa | 0 mm | 0 m/s | - | - |
| 1778008223 | 17.22° C | 48% | 1005.7 hPa | 0 mm | 0 m/s | - | - |
| 1778007010 | 18.33° C | 42% | 1005.7 hPa | 0 mm | 0 m/s | - | - |
| 1778005787 | 20° C | 40% | 1005.6 hPa | 0 mm | 0 m/s | - | - |
| 1778004585 | 20.56° C | 34% | 1005.5 hPa | 0 mm | 0 m/s | - | - |
| 1778003385 | 22.22° C | 33% | 1005.3 hPa | 0 mm | 0 m/s | - | - |
| 1778002185 | 22.78° C | 34% | 1005.1 hPa | 0 mm | 0 m/s | - | - |
| 1778000984 | 23.89° C | 32% | 1005.2 hPa | 0 mm | 0 m/s | - | - |
| 1777999780 | 25.56° C | 26% | 1005.2 hPa | 0 mm | 0.89 m/s, 128° | - | - |
| 1777998574 | 26.11° C | 26% | 1005.3 hPa | 0 mm | 0 m/s | - | - |
| 1777997357 | 26.67° C | 23% | 1005.3 hPa | 0 mm | 0.89 m/s, 142° | - | - |
| 1777996147 | 26.67° C | 23% | 1005.5 hPa | 0 mm | 1.34 m/s, 213° | - | - |
| 1777994938 | 26.11° C | 24% | 1005.4 hPa | 0 mm | 1.34 m/s, 93° | - | - |
* Rain latest hour (hover to see other rain measurements)
** Current wind speed in m/s (hover to see current wind gust speed)